Climatologie pour Saint-Brevin les Pins
Jour • Résumé pour février 15, 2017 Système :  Métrique    Anglais   Mixte
« - 1 jour
+ 1 jour »
Jour Semaine Mois Année Personnalisé
  Maximum : Minimum : Moyenne :
Température sous abri : 14.5 °C 5.9 °C 10.1 °C
Point de rosée : 11.2 °C 5.5 °C 8.6 °C
Humidité : 98 % 70 % 91 %
Vitesse du vent : 17.7 km/h 0.0 km/h 4.8 km/h
Rafale : 27.4 km/h - -
Direction :- - SSW
Pression : 1031.7 hPa 1024.3 hPa -
Précipitations : 1.5 mm    
Historical Graphs
 
 
Tableau de données pour février 15, 2017
Heure Tempé Pt rosée Pression Vent Vitesse Rafale Humidité Taux pluie (/hr) Soleil
00:00 8.8 °C 8.0 °C 1024.3 hPa SE 4.8 km/h 8.0 km/h 95 % 0.0 mm 0 W/m2
00:05 8.8 °C 8.0 °C 1024.3 hPa East 1.6 km/h 8.0 km/h 95 % 0.0 mm 0 W/m2
00:10 8.7 °C 8.0 °C 1024.3 hPa ESE 8.0 km/h 8.0 km/h 95 % 0.0 mm 0 W/m2
00:15 8.9 °C 8.3 °C 1024.3 hPa ESE 8.0 km/h 11.3 km/h 96 % 0.0 mm 0 W/m2
00:20 9.0 °C 8.2 °C 1024.3 hPa SE 4.8 km/h 11.3 km/h 95 % 0.0 mm 0 W/m2
00:30 9.0 °C 8.2 °C 1024.3 hPa SE 3.2 km/h 11.3 km/h 95 % 0.0 mm 0 W/m2
00:40 8.9 °C 8.1 °C 1024.3 hPa ESE 1.6 km/h 12.9 km/h 95 % 0.0 mm 0 W/m2
00:45 8.8 °C 8.1 °C 1024.3 hPa SE 8.0 km/h 12.9 km/h 95 % 0.0 mm 0 W/m2
00:55 8.8 °C 8.1 °C 1024.3 hPa SE 8.0 km/h 14.5 km/h 95 % 0.0 mm 0 W/m2
01:00 8.9 °C 8.1 °C 1024.3 hPa SE 4.8 km/h 14.5 km/h 95 % 0.0 mm 0 W/m2
01:10 8.8 °C 8.1 °C 1024.3 hPa ESE 4.8 km/h 12.9 km/h 95 % 0.0 mm 0 W/m2
01:15 8.7 °C 8.0 °C 1024.6 hPa SE 4.8 km/h 12.9 km/h 95 % 0.0 mm 0 W/m2
01:25 8.6 °C 7.8 °C 1024.6 hPa SE 1.6 km/h 11.3 km/h 95 % 0.0 mm 0 W/m2
01:30 8.6 °C 7.8 °C 1024.6 hPa SE 4.8 km/h 11.3 km/h 95 % 0.0 mm 0 W/m2
01:40 8.4 °C 7.8 °C 1024.6 hPa East 8.0 km/h 9.7 km/h 96 % 0.0 mm 0 W/m2
01:45 8.5 °C 7.9 °C 1024.6 hPa SE 4.8 km/h 11.3 km/h 96 % 0.0 mm 0 W/m2
01:55 8.4 °C 7.8 °C 1024.6 hPa ESE 4.8 km/h 11.3 km/h 96 % 0.0 mm 0 W/m2
02:00 8.5 °C 7.9 °C 1024.6 hPa SE 3.2 km/h 11.3 km/h 96 % 0.0 mm 0 W/m2
02:10 8.7 °C 8.1 °C 1024.3 hPa SSE 9.7 km/h 9.7 km/h 96 % 0.0 mm 0 W/m2
02:15 8.8 °C 8.2 °C 1024.6 hPa SE 9.7 km/h 11.3 km/h 96 % 0.0 mm 0 W/m2
02:25 8.7 °C 8.1 °C 1024.6 hPa SE 4.8 km/h 12.9 km/h 96 % 0.0 mm 0 W/m2
02:30 8.8 °C 8.2 °C 1024.6 hPa SE 4.8 km/h 12.9 km/h 96 % 0.0 mm 0 W/m2
02:40 8.8 °C 8.2 °C 1024.6 hPa SE 8.0 km/h 12.9 km/h 96 % 0.0 mm 0 W/m2
02:45 8.8 °C 8.2 °C 1024.6 hPa SE 1.6 km/h 16.1 km/h 96 % 0.0 mm 0 W/m2
02:50 8.8 °C 8.2 °C 1024.6 hPa SE 3.2 km/h 16.1 km/h 96 % 0.0 mm 0 W/m2
03:00 8.9 °C 8.3 °C 1024.6 hPa South 4.8 km/h 14.5 km/h 96 % 0.0 mm 0 W/m2
03:10 8.8 °C 8.2 °C 1024.6 hPa SSE 6.4 km/h 11.3 km/h 96 % 0.0 mm 0 W/m2
03:15 8.8 °C 8.2 °C 1024.6 hPa SSE 6.4 km/h 14.5 km/h 96 % 0.0 mm 0 W/m2
03:25 8.8 °C 8.2 °C 1024.6 hPa SE 8.0 km/h 14.5 km/h 96 % 0.0 mm 0 W/m2
03:30 8.8 °C 8.2 °C 1024.6 hPa ESE 6.4 km/h 14.5 km/h 96 % 0.0 mm 0 W/m2
03:40 8.8 °C 8.2 °C 1024.6 hPa SE 3.2 km/h 16.1 km/h 96 % 0.0 mm 0 W/m2
03:45 8.9 °C 8.3 °C 1024.6 hPa ESE 8.0 km/h 16.1 km/h 96 % 0.0 mm 0 W/m2
03:50 9.0 °C 8.4 °C 1024.6 hPa South 3.2 km/h 12.9 km/h 96 % 0.0 mm 0 W/m2
03:55 9.0 °C 8.2 °C 1024.6 hPa SE 6.4 km/h 14.5 km/h 95 % 0.0 mm 0 W/m2
04:00 9.0 °C 8.2 °C 1024.6 hPa SSE 6.4 km/h 17.7 km/h 95 % 0.0 mm 0 W/m2
04:15 9.2 °C 8.6 °C 1024.6 hPa South 14.5 km/h 17.7 km/h 96 % 0.0 mm 0 W/m2
04:20 9.2 °C 8.5 °C 1024.6 hPa South 9.7 km/h 17.7 km/h 95 % 0.0 mm 0 W/m2
04:25 9.3 °C 8.5 °C 1024.6 hPa South 12.9 km/h 17.7 km/h 95 % 0.0 mm 0 W/m2
04:30 9.3 °C 8.6 °C 1024.6 hPa SSE 9.7 km/h 17.7 km/h 95 % 0.0 mm 0 W/m2
04:35 9.3 °C 8.6 °C 1024.6 hPa SSE 6.4 km/h 16.1 km/h 95 % 0.0 mm 0 W/m2
04:40 9.3 °C 8.6 °C 1024.6 hPa South 9.7 km/h 16.1 km/h 95 % 0.0 mm 0 W/m2
04:45 9.3 °C 8.6 °C 1024.9 hPa South 6.4 km/h 14.5 km/h 95 % 0.0 mm 0 W/m2
04:50 9.3 °C 8.5 °C 1024.9 hPa South 8.0 km/h 12.9 km/h 95 % 0.0 mm 0 W/m2
04:55 9.3 °C 8.5 °C 1024.9 hPa South 4.8 km/h 12.9 km/h 95 % 0.0 mm 0 W/m2
05:00 9.3 °C 8.5 °C 1024.9 hPa South 11.3 km/h 17.7 km/h 95 % 0.0 mm 0 W/m2
05:10 9.4 °C 8.5 °C 1025.3 hPa South 14.5 km/h 14.5 km/h 94 % 0.0 mm 0 W/m2
05:15 9.5 °C 8.6 °C 1025.3 hPa South 6.4 km/h 19.3 km/h 94 % 0.0 mm 0 W/m2
05:20 9.7 °C 8.7 °C 1025.3 hPa South 8.0 km/h 19.3 km/h 94 % 0.0 mm 0 W/m2
05:25 9.8 °C 8.9 °C 1025.3 hPa South 9.7 km/h 22.5 km/h 94 % 0.0 mm 0 W/m2
05:30 9.8 °C 8.9 °C 1025.3 hPa SSW 17.7 km/h 22.5 km/h 94 % 0.0 mm 0 W/m2
05:40 9.9 °C 8.9 °C 1025.3 hPa South 6.4 km/h 27.4 km/h 93 % 0.0 mm 0 W/m2
05:50 9.9 °C 8.9 °C 1025.6 hPa SSW 17.7 km/h 20.9 km/h 93 % 0.0 mm 0 W/m2
06:00 9.9 °C 8.8 °C 1025.6 hPa SSE 9.7 km/h 25.7 km/h 93 % 0.0 mm 0 W/m2
06:10 9.8 °C 8.8 °C 1025.6 hPa South 8.0 km/h 19.3 km/h 93 % 0.0 mm 0 W/m2
06:15 9.8 °C 8.8 °C 1026.0 hPa SSE 9.7 km/h 19.3 km/h 93 % 0.0 mm 0 W/m2
06:20 9.8 °C 8.7 °C 1026.0 hPa SSE 9.7 km/h 17.7 km/h 93 % 0.0 mm 0 W/m2
06:30 9.7 °C 8.6 °C 1026.0 hPa South 16.1 km/h 19.3 km/h 93 % 0.0 mm 0 W/m2
06:40 9.8 °C 8.7 °C 1026.3 hPa SSW 14.5 km/h 17.7 km/h 93 % 0.0 mm 0 W/m2
06:45 9.8 °C 8.7 °C 1026.3 hPa South 8.0 km/h 16.1 km/h 93 % 0.0 mm 0 W/m2
06:50 9.8 °C 8.8 °C 1026.3 hPa SSE 12.9 km/h 16.1 km/h 93 % 0.0 mm 0 W/m2
07:00 9.9 °C 8.9 °C 1026.6 hPa SSW 6.4 km/h 16.1 km/h 93 % 0.0 mm 0 W/m2
07:05 9.9 °C 8.9 °C 1026.6 hPa SSW 3.2 km/h 16.1 km/h 93 % 0.0 mm 0 W/m2
07:10 9.9 °C 8.9 °C 1026.6 hPa South 11.3 km/h 17.7 km/h 93 % 0.0 mm 0 W/m2
07:15 9.9 °C 8.8 °C 1026.6 hPa SSE 12.9 km/h 17.7 km/h 93 % 0.0 mm 0 W/m2
07:25 9.8 °C 8.8 °C 1027.0 hPa SSW 6.4 km/h 22.5 km/h 93 % 0.0 mm 0 W/m2
07:30 9.8 °C 8.9 °C 1027.0 hPa SSW 11.3 km/h 22.5 km/h 94 % 0.0 mm 0 W/m2
07:40 9.7 °C 8.8 °C 1027.3 hPa SSW 6.4 km/h 16.1 km/h 94 % 0.0 mm 0 W/m2
07:45 9.7 °C 8.7 °C 1027.3 hPa SSW 14.5 km/h 17.7 km/h 94 % 0.0 mm 0 W/m2
07:50 9.7 °C 8.7 °C 1027.0 hPa SSW 6.4 km/h 17.7 km/h 94 % 0.0 mm 0 W/m2
07:55 9.7 °C 8.7 °C 1027.3 hPa SSW 8.0 km/h 14.5 km/h 94 % 0.0 mm 0 W/m2
08:00 9.7 °C 8.9 °C 1027.3 hPa South 11.3 km/h 11.3 km/h 95 % 0.0 mm 0 W/m2
08:10 9.7 °C 9.0 °C 1027.3 hPa SSW 6.4 km/h 12.9 km/h 95 % 0.0 mm 0 W/m2
08:15 9.7 °C 8.9 °C 1027.7 hPa SSW 6.4 km/h 11.3 km/h 95 % 0.0 mm 5 W/m2
08:25 9.6 °C 8.8 °C 1027.7 hPa SW 8.0 km/h 11.3 km/h 95 % 0.0 mm 12 W/m2
08:30 9.6 °C 8.8 °C 1027.7 hPa South 9.7 km/h 11.3 km/h 95 % 0.0 mm 21 W/m2
08:40 9.7 °C 8.9 °C 1028.0 hPa SSW 6.4 km/h 12.9 km/h 95 % 0.0 mm 28 W/m2
08:45 9.7 °C 8.9 °C 1028.0 hPa SSW 8.0 km/h 12.9 km/h 95 % 0.0 mm 16 W/m2
08:50 9.7 °C 8.9 °C 1028.0 hPa SSW 6.4 km/h 12.9 km/h 95 % 0.0 mm 16 W/m2
08:55 9.7 °C 9.0 °C 1028.3 hPa SSW 4.8 km/h 11.3 km/h 95 % 0.0 mm 14 W/m2
09:00 9.8 °C 9.2 °C 1028.3 hPa SSW 4.8 km/h 11.3 km/h 96 % 0.0 mm 9 W/m2
09:10 9.8 °C 9.0 °C 1028.3 hPa Calm   9.7 km/h 95 % 0.3 mm 9 W/m2
09:15 9.7 °C 9.1 °C 1028.3 hPa SE 1.6 km/h 9.7 km/h 96 % 0.8 mm 18 W/m2
09:25 9.5 °C 8.9 °C 1028.0 hPa Calm   8.0 km/h 96 % 1.5 mm 21 W/m2
09:30 9.5 °C 8.9 °C 1028.0 hPa South 4.8 km/h 8.0 km/h 96 % 1.5 mm 69 W/m2
09:40 9.7 °C 9.2 °C 1028.0 hPa SE 3.2 km/h 9.7 km/h 97 % 1.5 mm 104 W/m2
09:45 9.9 °C 9.5 °C 1028.3 hPa SE 8.0 km/h 8.0 km/h 97 % 1.5 mm 91 W/m2
09:55 10.2 °C 9.8 °C 1028.3 hPa SSE 1.6 km/h 8.0 km/h 97 % 1.5 mm 35 W/m2
10:00 10.2 °C 9.8 °C 1028.7 hPa Calm   8.0 km/h 97 % 1.5 mm 37 W/m2
10:10 10.4 °C 9.9 °C 1028.7 hPa Calm   4.8 km/h 97 % 1.0 mm 37 W/m2
10:15 10.4 °C 9.9 °C 1028.7 hPa Calm   4.8 km/h 97 % 0.5 mm 39 W/m2
10:25 10.8 °C 10.4 °C 1028.7 hPa SSE 4.8 km/h 6.4 km/h 97 % 0.0 mm 288 W/m2
10:30 11.0 °C 10.4 °C 1029.0 hPa SSW 4.8 km/h 8.0 km/h 96 % 0.0 mm 299 W/m2
10:40 11.4 °C 10.7 °C 1029.0 hPa South 3.2 km/h 9.7 km/h 95 % 0.0 mm 323 W/m2
10:45 11.6 °C 10.7 °C 1029.0 hPa South 4.8 km/h 9.7 km/h 94 % 0.0 mm 336 W/m2
10:50 11.8 °C 10.8 °C 1029.3 hPa South 4.8 km/h 9.7 km/h 94 % 0.0 mm 339 W/m2
10:55 11.9 °C 10.8 °C 1029.3 hPa South 6.4 km/h 9.7 km/h 93 % 0.0 mm 353 W/m2
11:00 12.1 °C 10.8 °C 1029.3 hPa South 4.8 km/h 11.3 km/h 92 % 0.0 mm 364 W/m2
11:10 12.5 °C 11.2 °C 1029.3 hPa SSW 6.4 km/h 11.3 km/h 92 % 0.0 mm 381 W/m2
11:15 12.6 °C 11.0 °C 1029.3 hPa SSE 6.4 km/h 11.3 km/h 90 % 0.0 mm 388 W/m2
11:25 12.8 °C 11.1 °C 1029.3 hPa South 4.8 km/h 11.3 km/h 89 % 0.0 mm 406 W/m2
11:30 12.9 °C 11.0 °C 1029.3 hPa South 4.8 km/h 11.3 km/h 88 % 0.0 mm 417 W/m2
11:40 13.2 °C 11.0 °C 1029.7 hPa SW 11.3 km/h 11.3 km/h 87 % 0.0 mm 424 W/m2
11:45 13.2 °C 11.1 °C 1029.7 hPa SSE 8.0 km/h 12.9 km/h 87 % 0.0 mm 427 W/m2
11:50 13.4 °C 11.1 °C 1029.7 hPa SSE 3.2 km/h 12.9 km/h 86 % 0.0 mm 443 W/m2
11:55 13.4 °C 10.8 °C 1029.7 hPa SSW 4.8 km/h 11.3 km/h 84 % 0.0 mm 446 W/m2
12:00 13.6 °C 10.9 °C 1030.0 hPa South 6.4 km/h 11.3 km/h 84 % 0.0 mm 457 W/m2
12:10 13.5 °C 10.5 °C 1030.0 hPa SW 8.0 km/h 12.9 km/h 82 % 0.0 mm 466 W/m2
12:15 13.6 °C 10.9 °C 1030.0 hPa SSW 6.4 km/h 11.3 km/h 84 % 0.0 mm 473 W/m2
12:20 13.7 °C 10.7 °C 1030.0 hPa SSW 8.0 km/h 11.3 km/h 82 % 0.0 mm 476 W/m2
12:25 13.5 °C 10.5 °C 1030.0 hPa WSW 6.4 km/h 12.9 km/h 82 % 0.0 mm 482 W/m2
12:35 13.8 °C 10.8 °C 1030.0 hPa WSW 4.8 km/h 14.5 km/h 82 % 0.0 mm 485 W/m2
12:40 13.8 °C 10.6 °C 1030.0 hPa SSW 4.8 km/h 14.5 km/h 81 % 0.0 mm 489 W/m2
12:45 13.9 °C 10.5 °C 1030.0 hPa South 11.3 km/h 14.5 km/h 80 % 0.0 mm 494 W/m2
12:55 13.6 °C 10.2 °C 1030.0 hPa South 6.4 km/h 14.5 km/h 80 % 0.0 mm 497 W/m2
13:00 13.6 °C 10.0 °C 1030.0 hPa SSW 4.8 km/h 16.1 km/h 79 % 0.0 mm 497 W/m2
13:10 13.9 °C 10.5 °C 1030.0 hPa SW 9.7 km/h 12.9 km/h 80 % 0.0 mm 503 W/m2
13:15 13.9 °C 10.7 °C 1030.0 hPa SW 9.7 km/h 16.1 km/h 81 % 0.0 mm 510 W/m2
13:25 13.8 °C 10.4 °C 1030.0 hPa SSW 8.0 km/h 12.9 km/h 80 % 0.0 mm 471 W/m2
13:30 13.7 °C 10.0 °C 1030.0 hPa South 3.2 km/h 11.3 km/h 78 % 0.0 mm 482 W/m2
13:40 14.3 °C 10.2 °C 1030.0 hPa WSW 4.8 km/h 14.5 km/h 76 % 0.0 mm 485 W/m2
13:50 14.3 °C 10.2 °C 1030.0 hPa SW 3.2 km/h 8.0 km/h 76 % 0.0 mm 482 W/m2
14:00 14.5 °C 10.1 °C 1030.0 hPa West 4.8 km/h 11.3 km/h 75 % 0.0 mm 485 W/m2
14:10 14.5 °C 10.3 °C 1030.0 hPa WSW 8.0 km/h 11.3 km/h 76 % 0.0 mm 480 W/m2
14:15 14.3 °C 10.0 °C 1030.0 hPa WSW 6.4 km/h 12.9 km/h 75 % 0.0 mm 480 W/m2
14:25 14.1 °C 10.3 °C 1030.0 hPa Calm   11.3 km/h 78 % 0.0 mm 459 W/m2
14:30 14.1 °C 9.7 °C 1030.0 hPa WSW 6.4 km/h 11.3 km/h 75 % 0.0 mm 462 W/m2
14:35 14.1 °C 9.7 °C 1030.0 hPa WNW 9.7 km/h 11.3 km/h 75 % 0.0 mm 454 W/m2
14:40 14.2 °C 10.0 °C 1030.0 hPa SW 6.4 km/h 11.3 km/h 76 % 0.0 mm 461 W/m2
14:45 14.3 °C 9.8 °C 1030.0 hPa SW 3.2 km/h 11.3 km/h 74 % 0.0 mm 432 W/m2
14:50 14.2 °C 9.7 °C 1030.0 hPa WSW 6.4 km/h 12.9 km/h 74 % 0.0 mm 376 W/m2
14:55 14.2 °C 9.9 °C 1030.0 hPa West 6.4 km/h 12.9 km/h 75 % 0.0 mm 466 W/m2
15:00 14.2 °C 9.8 °C 1030.0 hPa West 6.4 km/h 12.9 km/h 75 % 0.0 mm 457 W/m2
15:10 14.3 °C 9.7 °C 1030.0 hPa WSW 8.0 km/h 11.3 km/h 74 % 0.0 mm 422 W/m2
15:15 14.3 °C 9.7 °C 1030.0 hPa West 4.8 km/h 11.3 km/h 74 % 0.0 mm 417 W/m2
15:20 14.2 °C 9.4 °C 1030.0 hPa West 6.4 km/h 12.9 km/h 73 % 0.0 mm 408 W/m2
15:25 14.4 °C 9.7 °C 1030.0 hPa WSW 8.0 km/h 12.9 km/h 73 % 0.0 mm 388 W/m2
15:30 14.3 °C 9.1 °C 1030.0 hPa WSW 4.8 km/h 11.3 km/h 71 % 0.0 mm 373 W/m2
15:40 14.2 °C 9.2 °C 1030.0 hPa West 1.6 km/h 11.3 km/h 72 % 0.0 mm 353 W/m2
15:45 14.5 °C 9.7 °C 1030.0 hPa WSW 3.2 km/h 11.3 km/h 73 % 0.0 mm 345 W/m2
15:50 14.3 °C 8.9 °C 1030.4 hPa WSW 4.8 km/h 11.3 km/h 70 % 0.0 mm 304 W/m2
15:55 14.2 °C 9.2 °C 1030.4 hPa WNW 3.2 km/h 11.3 km/h 72 % 0.0 mm 315 W/m2
16:00 14.2 °C 9.2 °C 1030.4 hPa West 4.8 km/h 9.7 km/h 72 % 0.0 mm 339 W/m2
16:05 13.8 °C 8.9 °C 1030.4 hPa WNW 6.4 km/h 9.7 km/h 72 % 0.0 mm 146 W/m2
16:15 13.8 °C 9.3 °C 1030.4 hPa WSW 4.8 km/h 9.7 km/h 74 % 0.0 mm 197 W/m2
16:20 13.7 °C 9.3 °C 1030.4 hPa WNW 4.8 km/h 9.7 km/h 75 % 0.0 mm 155 W/m2
16:25 13.2 °C 9.1 °C 1030.4 hPa West 4.8 km/h 9.7 km/h 76 % 0.0 mm 139 W/m2
16:35 12.7 °C 9.9 °C 1030.4 hPa NW 3.2 km/h 9.7 km/h 83 % 0.0 mm 207 W/m2
16:40 12.6 °C 10.1 °C 1030.7 hPa West 6.4 km/h 9.7 km/h 85 % 0.0 mm 174 W/m2
16:45 12.5 °C 10.0 °C 1030.7 hPa West 1.6 km/h 9.7 km/h 85 % 0.0 mm 144 W/m2
16:50 12.3 °C 9.9 °C 1030.4 hPa West 6.4 km/h 9.7 km/h 85 % 0.0 mm 65 W/m2
16:55 12.2 °C 9.8 °C 1030.7 hPa West 1.6 km/h 9.7 km/h 85 % 0.0 mm 74 W/m2
17:00 12.2 °C 9.7 °C 1030.7 hPa West 3.2 km/h 6.4 km/h 85 % 0.0 mm 70 W/m2
17:10 12.3 °C 9.8 °C 1030.7 hPa Calm   6.4 km/h 85 % 0.0 mm 74 W/m2
17:20 12.0 °C 9.7 °C 1030.7 hPa West 4.8 km/h 8.0 km/h 86 % 0.0 mm 69 W/m2
17:25 11.8 °C 9.7 °C 1030.7 hPa West 4.8 km/h 8.0 km/h 87 % 0.0 mm 65 W/m2
17:30 11.7 °C 9.6 °C 1030.7 hPa WSW 3.2 km/h 8.0 km/h 87 % 0.0 mm 54 W/m2
17:40 11.4 °C 9.5 °C 1031.0 hPa West 4.8 km/h 8.0 km/h 88 % 0.0 mm 42 W/m2
17:45 11.3 °C 9.4 °C 1031.0 hPa West 8.0 km/h 9.7 km/h 88 % 0.0 mm 39 W/m2
17:50 11.1 °C 9.3 °C 1030.7 hPa West 3.2 km/h 9.7 km/h 89 % 0.0 mm 35 W/m2
17:55 10.9 °C 9.2 °C 1031.0 hPa West 3.2 km/h 9.7 km/h 89 % 0.0 mm 30 W/m2
18:00 10.8 °C 9.2 °C 1030.7 hPa West 4.8 km/h 9.7 km/h 90 % 0.0 mm 26 W/m2
18:10 10.4 °C 9.0 °C 1031.0 hPa WSW 3.2 km/h 8.0 km/h 91 % 0.0 mm 19 W/m2
18:15 10.2 °C 8.8 °C 1031.0 hPa West 3.2 km/h 9.7 km/h 91 % 0.0 mm 12 W/m2
18:25 9.8 °C 8.5 °C 1031.0 hPa West 1.6 km/h 8.0 km/h 92 % 0.0 mm 5 W/m2
18:30 9.6 °C 8.5 °C 1031.0 hPa West 6.4 km/h 8.0 km/h 93 % 0.0 mm 0 W/m2
18:40 9.0 °C 7.9 °C 1031.0 hPa Calm   6.4 km/h 93 % 0.0 mm 0 W/m2
18:45 8.9 °C 8.0 °C 1031.4 hPa Calm   4.8 km/h 94 % 0.0 mm 0 W/m2
18:50 8.6 °C 7.6 °C 1031.4 hPa Calm   4.8 km/h 94 % 0.0 mm 0 W/m2
18:55 8.3 °C 7.4 °C 1031.4 hPa Calm     94 % 0.0 mm 0 W/m2
19:00 8.2 °C 7.4 °C 1031.4 hPa Calm     95 % 0.0 mm 0 W/m2
19:10 8.2 °C 7.6 °C 1031.4 hPa Calm     96 % 0.0 mm 0 W/m2
19:15 8.2 °C 7.6 °C 1031.7 hPa Calm     96 % 0.0 mm 0 W/m2
19:20 8.1 °C 7.5 °C 1031.7 hPa Calm     96 % 0.0 mm 0 W/m2
19:25 8.1 °C 7.3 °C 1031.7 hPa Calm     95 % 0.0 mm 0 W/m2
19:35 7.8 °C 7.2 °C 1031.7 hPa Calm     96 % 0.0 mm 0 W/m2
19:40 7.7 °C 7.1 °C 1031.7 hPa Calm   6.4 km/h 96 % 0.0 mm 0 W/m2
19:45 7.9 °C 7.3 °C 1031.7 hPa Calm   6.4 km/h 96 % 0.0 mm 0 W/m2
19:55 8.0 °C 7.4 °C 1031.7 hPa Calm     96 % 0.0 mm 0 W/m2
20:00 7.9 °C 7.3 °C 1031.7 hPa Calm     96 % 0.0 mm 0 W/m2
20:10 7.7 °C 7.1 °C 1031.7 hPa Calm     96 % 0.0 mm 0 W/m2
20:15 7.8 °C 7.4 °C 1031.7 hPa Calm   1.6 km/h 97 % 0.0 mm 0 W/m2
20:20 7.7 °C 7.1 °C 1031.7 hPa Calm   1.6 km/h 96 % 0.0 mm 0 W/m2
20:25 7.4 °C 6.8 °C 1031.7 hPa Calm   1.6 km/h 96 % 0.0 mm 0 W/m2
20:30 6.9 °C 6.4 °C 1031.7 hPa Calm     96 % 0.0 mm 0 W/m2
20:40 6.7 °C 6.2 °C 1031.7 hPa Calm     97 % 0.0 mm 0 W/m2
20:45 6.9 °C 6.5 °C 1031.4 hPa Calm     97 % 0.0 mm 0 W/m2
20:50 6.8 °C 6.4 °C 1031.4 hPa Calm     97 % 0.0 mm 0 W/m2
20:55 6.7 °C 6.2 °C 1031.7 hPa Calm     97 % 0.0 mm 0 W/m2
21:05 6.8 °C 6.4 °C 1031.7 hPa Calm     97 % 0.0 mm 0 W/m2
21:10 6.7 °C 6.2 °C 1031.7 hPa Calm     97 % 0.0 mm 0 W/m2
21:15 6.6 °C 6.1 °C 1031.7 hPa Calm     97 % 0.0 mm 0 W/m2
21:20 6.6 °C 6.1 °C 1031.7 hPa Calm     97 % 0.0 mm 0 W/m2
21:25 6.6 °C 6.2 °C 1031.7 hPa Calm     97 % 0.0 mm 0 W/m2
21:30 6.6 °C 6.2 °C 1031.7 hPa Calm     97 % 0.0 mm 0 W/m2
21:35 6.7 °C 6.2 °C 1031.7 hPa Calm     97 % 0.0 mm 0 W/m2
21:40 6.6 °C 6.2 °C 1031.7 hPa Calm     97 % 0.0 mm 0 W/m2
21:50 6.5 °C 6.1 °C 1031.7 hPa Calm     97 % 0.0 mm 0 W/m2
22:00 6.4 °C 6.0 °C 1031.7 hPa Calm     97 % 0.0 mm 0 W/m2
22:10 6.3 °C 5.8 °C 1031.7 hPa Calm     97 % 0.0 mm 0 W/m2
22:15 6.2 °C 5.8 °C 1031.7 hPa Calm     97 % 0.0 mm 0 W/m2
22:20 6.0 °C 5.6 °C 1031.7 hPa Calm     97 % 0.0 mm 0 W/m2
22:25 5.9 °C 5.5 °C 1031.7 hPa Calm     97 % 0.0 mm 0 W/m2
22:30 6.3 °C 6.0 °C 1031.7 hPa Calm     98 % 0.0 mm 0 W/m2
22:35 6.3 °C 6.0 °C 1031.7 hPa Calm     98 % 0.0 mm 0 W/m2
22:40 6.2 °C 5.7 °C 1031.7 hPa Calm     97 % 0.0 mm 0 W/m2
22:45 6.0 °C 5.6 °C 1031.7 hPa Calm     97 % 0.0 mm 0 W/m2
22:50 6.0 °C 5.6 °C 1031.7 hPa Calm     97 % 0.0 mm 0 W/m2
23:00 6.2 °C 5.8 °C 1031.4 hPa Calm   3.2 km/h 97 % 0.0 mm 0 W/m2
23:10 6.4 °C 6.1 °C 1031.7 hPa Calm   1.6 km/h 98 % 0.0 mm 0 W/m2
23:20 6.2 °C 5.8 °C 1031.7 hPa Calm     97 % 0.0 mm 0 W/m2
23:25 6.2 °C 5.8 °C 1031.7 hPa WSW 1.6 km/h 3.2 km/h 97 % 0.0 mm 0 W/m2
23:30 6.2 °C 5.9 °C 1031.7 hPa Calm   3.2 km/h 98 % 0.0 mm 0 W/m2
23:40 6.5 °C 6.2 °C 1031.7 hPa Calm   3.2 km/h 98 % 0.0 mm 0 W/m2
23:50 6.3 °C 6.0 °C 1031.7 hPa Calm   1.6 km/h 98 % 0.0 mm 0 W/m2
23:55 6.2 °C 5.9 °C 1031.7 hPa Calm   1.6 km/h 98 % 0.0 mm 0 W/m2
Avec l'autorisation de Weather Underground - 1.5 mb